Terminal Aerodrome Forecast
Issued by NWS King Salmon, AK

Home | Current Version | Previous Version | Text Only | Print | Product List | Glossary On
Versions: 1 2 3 4 5 6 7 8 9 10 11 12 13 14 15 16 17 18 19 20
000
FTAK31 PANC 160905 AAA
TAFAKN
TAF AMD
PAKN 160905Z 1609/1706 20005KT 6SM -SHRASN SCT009 BKN020 OVC050
      TEMPO 1609/1611 1SM -SN BR BKN009
     FM161300 14008KT P6SM SCT020 OVC050
     FM162100 14008KT P6SM VCSH BKN020 OVC035=

USA.gov is the U.S. government's official web portal to all federal, state and local government web resources and services.